createdAt,value
2018-11-29T00:01:41.156Z,98.90
2018-11-29T00:04:45.326Z,98.90
2018-11-29T00:07:49.484Z,99.30
2018-11-29T00:10:53.897Z,99.40
2018-11-29T00:13:58.053Z,99.40
2018-11-29T00:17:02.197Z,99.40
2018-11-29T00:20:15.317Z,99.40
2018-11-29T00:23:19.540Z,99.40
2018-11-29T00:26:23.681Z,99.40
2018-11-29T00:29:27.833Z,99.60
2018-11-29T00:32:31.993Z,99.60
2018-11-29T00:35:36.263Z,99.50
2018-11-29T00:38:40.534Z,99.30
2018-11-29T00:41:44.639Z,99.40
2018-11-29T00:44:48.746Z,99.70
2018-11-29T00:47:53.177Z,99.60
2018-11-29T00:50:57.424Z,99.40
2018-11-29T00:54:01.625Z,99.50
2018-11-29T00:57:06.386Z,99.60
2018-11-29T01:00:19.157Z,99.30
2018-11-29T01:03:23.255Z,99.10
2018-11-29T01:06:27.348Z,99.10
2018-11-29T01:09:31.525Z,98.90
2018-11-29T01:12:35.670Z,98.90
2018-11-29T01:15:39.767Z,99.20
2018-11-29T01:18:43.873Z,99.10
2018-11-29T01:21:47.972Z,99.00
2018-11-29T01:24:52.076Z,99.30
2018-11-29T01:27:56.188Z,99.40
2018-11-29T01:31:00.300Z,99.20
2018-11-29T01:34:04.400Z,99.60
2018-11-29T01:37:08.504Z,99.50
2018-11-29T01:40:18.682Z,99.50
2018-11-29T01:43:22.780Z,99.60
2018-11-29T01:46:26.880Z,99.60
2018-11-29T01:49:30.984Z,99.50
2018-11-29T01:52:35.098Z,99.70
2018-11-29T01:55:39.217Z,99.50
2018-11-29T01:58:43.333Z,99.40
2018-11-29T02:01:47.442Z,99.20
2018-11-29T02:04:51.552Z,99.20
2018-11-29T02:07:55.656Z,99.10
2018-11-29T02:10:59.768Z,99.00
2018-11-29T02:14:03.882Z,99.10
2018-11-29T02:17:08.020Z,99.00
2018-11-29T02:20:14.955Z,99.00
2018-11-29T02:23:19.052Z,99.00
2018-11-29T02:26:23.156Z,99.10
2018-11-29T02:29:27.316Z,99.10
2018-11-29T02:32:31.443Z,99.30
2018-11-29T02:35:35.625Z,99.40
2018-11-29T02:38:39.742Z,99.40
2018-11-29T02:41:43.877Z,99.30
2018-11-29T02:44:47.997Z,99.30
2018-11-29T02:47:52.176Z,99.30
2018-11-29T02:50:56.300Z,99.20
2018-11-29T02:54:00.436Z,99.30
2018-11-29T02:57:04.552Z,99.40
2018-11-29T03:00:14.214Z,99.30
2018-11-29T03:03:18.453Z,99.30
2018-11-29T03:06:22.609Z,99.30
2018-11-29T03:09:26.728Z,99.30
2018-11-29T03:12:30.877Z,99.30
2018-11-29T03:15:35.012Z,99.20
2018-11-29T03:18:39.179Z,99.20
2018-11-29T03:21:43.403Z,99.40
2018-11-29T03:24:47.488Z,99.20
2018-11-29T03:27:51.669Z,99.30
2018-11-29T03:30:55.797Z,99.40
2018-11-29T03:33:59.917Z,99.50
2018-11-29T03:37:04.053Z,99.80
2018-11-29T03:40:13.140Z,99.90
2018-11-29T03:43:17.269Z,99.90
2018-11-29T03:46:21.399Z,99.90
2018-11-29T03:49:25.512Z,99.90
2018-11-29T03:52:29.650Z,99.90
2018-11-29T03:55:33.775Z,99.90
2018-11-29T03:58:37.904Z,99.90
2018-11-29T04:01:42.028Z,99.90
2018-11-29T04:04:46.179Z,99.90
2018-11-29T04:07:50.300Z,99.90
2018-11-29T04:10:54.492Z,99.90
2018-11-29T04:13:58.617Z,99.90
2018-11-29T04:17:02.746Z,99.90
2018-11-29T04:20:12.070Z,99.90
2018-11-29T04:23:16.177Z,99.90
2018-11-29T04:26:20.298Z,99.90
2018-11-29T04:29:24.481Z,99.90
2018-11-29T04:32:28.608Z,99.90
2018-11-29T04:35:32.733Z,99.90
2018-11-29T04:38:37.101Z,99.90
2018-11-29T04:41:41.216Z,99.90
2018-11-29T04:44:45.393Z,99.90
2018-11-29T04:47:49.540Z,99.90
2018-11-29T04:50:53.680Z,99.90
2018-11-29T04:53:57.824Z,99.90
2018-11-29T04:57:01.964Z,99.90
2018-11-29T05:00:16.545Z,99.90
2018-11-29T05:03:20.674Z,99.90
2018-11-29T05:06:24.849Z,99.80
2018-11-29T05:09:28.965Z,99.70
2018-11-29T05:12:33.077Z,99.70
2018-11-29T05:15:37.248Z,99.60
2018-11-29T05:18:41.369Z,99.60
2018-11-29T05:21:45.489Z,99.70
2018-11-29T05:24:49.665Z,99.50
2018-11-29T05:27:53.959Z,99.60
2018-11-29T05:30:58.069Z,99.50
2018-11-29T05:34:02.204Z,99.30
2018-11-29T05:37:07.149Z,99.40
2018-11-29T05:40:13.141Z,99.60
2018-11-29T05:43:17.260Z,99.40
2018-11-29T05:46:21.466Z,99.50
2018-11-29T05:49:25.704Z,99.50
2018-11-29T05:52:29.828Z,99.90
2018-11-29T05:55:33.952Z,99.90
2018-11-29T05:58:38.093Z,99.90
2018-11-29T06:01:44.001Z,99.90
2018-11-29T06:04:49.269Z,99.90
2018-11-29T06:07:53.487Z,99.90
2018-11-29T06:10:57.728Z,99.90
2018-11-29T06:14:01.848Z,99.90
2018-11-29T06:17:05.991Z,99.90
2018-11-29T06:20:15.656Z,99.90
2018-11-29T06:23:19.891Z,99.90
2018-11-29T06:26:24.070Z,99.90
2018-11-29T06:29:28.220Z,99.90
2018-11-29T06:32:32.384Z,99.90
2018-11-29T06:35:36.525Z,99.90
2018-11-29T06:38:40.697Z,99.90
2018-11-29T06:41:44.844Z,99.90
2018-11-29T06:44:49.000Z,99.70
2018-11-29T06:47:53.513Z,99.70
2018-11-29T06:50:57.700Z,99.80
2018-11-29T06:54:01.859Z,99.90
2018-11-29T06:57:06.260Z,99.90
2018-11-29T07:00:15.776Z,99.90
2018-11-29T07:03:19.926Z,99.90
2018-11-29T07:06:24.060Z,99.90
2018-11-29T07:09:28.211Z,99.90
2018-11-29T07:12:32.344Z,99.80
2018-11-29T07:15:36.560Z,99.80
2018-11-29T07:18:40.700Z,99.90
2018-11-29T07:21:52.873Z,99.70
2018-11-29T07:24:57.012Z,99.70
2018-11-29T07:28:01.185Z,99.70
2018-11-29T07:31:05.411Z,99.90
2018-11-29T07:34:09.738Z,99.80
2018-11-29T07:37:17.375Z,99.90
2018-11-29T07:40:19.953Z,99.90
2018-11-29T07:43:24.109Z,99.90
2018-11-29T07:46:28.249Z,99.70
2018-11-29T07:49:32.384Z,99.60
2018-11-29T07:52:36.580Z,99.80
2018-11-29T07:55:40.760Z,99.90
2018-11-29T07:58:44.906Z,99.90
2018-11-29T08:01:49.054Z,99.90
2018-11-29T08:04:53.253Z,99.90
2018-11-29T08:07:57.400Z,99.90
2018-11-29T08:11:01.624Z,99.90
2018-11-29T08:14:06.029Z,99.90
2018-11-29T08:17:10.169Z,99.90
2018-11-29T08:20:17.017Z,99.90
2018-11-29T08:23:21.170Z,99.40
2018-11-29T08:26:25.316Z,99.60
2018-11-29T08:29:32.929Z,99.00
2018-11-29T08:32:33.594Z,98.90
2018-11-29T08:35:37.905Z,98.30
2018-11-29T08:38:42.051Z,98.10
2018-11-29T08:41:46.242Z,98.50
2018-11-29T08:44:50.379Z,97.70
2018-11-29T08:47:54.514Z,98.20
2018-11-29T08:50:58.632Z,97.80
2018-11-29T08:54:02.797Z,97.40
2018-11-29T08:57:07.040Z,97.50
2018-11-29T09:00:20.417Z,97.30
2018-11-29T09:03:24.567Z,97.30
2018-11-29T09:06:28.684Z,97.30
2018-11-29T09:09:32.816Z,97.00
2018-11-29T09:12:36.938Z,96.50
2018-11-29T09:15:41.137Z,96.50
2018-11-29T09:18:45.271Z,95.90
2018-11-29T09:21:49.385Z,95.20
2018-11-29T09:24:53.508Z,95.00
2018-11-29T09:27:57.636Z,94.80
2018-11-29T09:31:01.922Z,94.90
2018-11-29T09:34:06.351Z,94.60
2018-11-29T09:37:10.581Z,93.70
2018-11-29T09:40:17.249Z,93.30
2018-11-29T09:43:21.357Z,92.60
2018-11-29T09:46:25.472Z,92.00
2018-11-29T09:49:29.601Z,91.70
2018-11-29T09:52:33.741Z,91.70
2018-11-29T09:55:37.859Z,91.60
2018-11-29T09:58:41.980Z,91.60
2018-11-29T10:01:46.100Z,92.00
2018-11-29T10:04:50.282Z,92.50
2018-11-29T10:07:54.396Z,92.40
2018-11-29T10:10:58.509Z,93.30
2018-11-29T10:14:02.626Z,93.20
2018-11-29T10:17:06.794Z,93.60
2018-11-29T10:20:13.029Z,93.20
2018-11-29T10:23:17.148Z,93.30
2018-11-29T10:26:21.349Z,93.50
2018-11-29T10:29:25.519Z,94.00
2018-11-29T10:32:29.629Z,92.80
2018-11-29T10:35:33.802Z,92.80
2018-11-29T10:38:37.937Z,92.60
2018-11-29T10:41:42.137Z,92.40
2018-11-29T10:44:46.257Z,92.50
2018-11-29T10:47:53.493Z,91.70
2018-11-29T10:50:57.645Z,91.10
2018-11-29T10:54:01.772Z,91.40
2018-11-29T10:57:06.372Z,90.90
2018-11-29T11:00:31.185Z,91.30
2018-11-29T11:03:35.328Z,90.60
2018-11-29T11:06:39.533Z,90.50
2018-11-29T11:09:43.673Z,90.20
2018-11-29T11:12:47.781Z,90.00
2018-11-29T11:15:51.899Z,87.80
2018-11-29T11:18:55.997Z,87.90
2018-11-29T11:22:00.120Z,86.10
2018-11-29T11:25:04.616Z,86.00
2018-11-29T11:28:09.959Z,86.10
2018-11-29T11:31:14.092Z,86.50
2018-11-29T11:34:18.221Z,87.40
2018-11-29T11:37:22.336Z,87.30
2018-11-29T11:40:26.535Z,87.30
2018-11-29T11:43:30.617Z,87.50
2018-11-29T11:46:34.788Z,88.20
2018-11-29T11:49:38.957Z,89.40
2018-11-29T11:52:43.124Z,89.00
2018-11-29T11:55:53.309Z,88.10
2018-11-29T11:58:51.340Z,87.60
2018-11-29T12:01:55.545Z,88.10
2018-11-29T12:04:59.663Z,89.20
2018-11-29T12:08:03.789Z,89.00
2018-11-29T12:11:07.929Z,89.50
2018-11-29T12:14:12.037Z,89.60
2018-11-29T12:17:16.160Z,89.10
2018-11-29T12:20:20.940Z,89.70
2018-11-29T12:23:25.101Z,89.20
2018-11-29T12:26:29.216Z,89.80
2018-11-29T12:29:33.433Z,90.00
2018-11-29T12:32:37.557Z,90.30
2018-11-29T12:35:41.681Z,89.70
2018-11-29T12:38:45.794Z,89.60
2018-11-29T12:41:49.905Z,90.00
2018-11-29T12:44:54.030Z,88.60
2018-11-29T12:47:58.240Z,88.50
2018-11-29T12:51:02.365Z,87.10
2018-11-29T12:54:07.501Z,86.80
2018-11-29T12:57:11.612Z,85.80
2018-11-29T13:00:17.990Z,86.30
2018-11-29T13:03:22.092Z,86.60
2018-11-29T13:06:26.213Z,87.40
2018-11-29T13:09:30.320Z,87.90
2018-11-29T13:12:34.444Z,88.60
2018-11-29T13:15:38.572Z,87.20
2018-11-29T13:18:42.679Z,87.20
2018-11-29T13:21:46.802Z,88.30
2018-11-29T13:24:50.928Z,88.80
2018-11-29T13:27:55.047Z,88.70
2018-11-29T13:30:59.251Z,88.30
2018-11-29T13:34:03.368Z,88.60
2018-11-29T13:37:07.581Z,87.30
2018-11-29T13:40:12.213Z,87.90
2018-11-29T13:43:16.416Z,88.60
2018-11-29T13:46:20.541Z,89.00
2018-11-29T13:49:24.657Z,89.70
2018-11-29T13:52:28.785Z,88.70
2018-11-29T13:55:32.955Z,90.00
2018-11-29T13:58:37.101Z,89.10
2018-11-29T14:01:41.216Z,90.40
2018-11-29T14:04:45.353Z,89.70
2018-11-29T14:07:49.467Z,89.00
2018-11-29T14:10:53.589Z,89.90
2018-11-29T14:13:57.696Z,89.40
2018-11-29T14:17:01.811Z,89.20
2018-11-29T14:20:07.230Z,88.30
2018-11-29T14:23:11.369Z,88.90
2018-11-29T14:26:15.556Z,89.90
2018-11-29T14:29:19.617Z,89.80
2018-11-29T14:32:23.817Z,90.80
2018-11-29T14:35:27.946Z,90.10
2018-11-29T14:38:32.058Z,90.40
2018-11-29T14:41:36.283Z,90.20
2018-11-29T14:44:41.123Z,89.20
2018-11-29T14:47:45.365Z,90.00
2018-11-29T14:50:49.544Z,89.40
2018-11-29T14:53:53.761Z,89.80
2018-11-29T14:56:57.930Z,89.80
2018-11-29T15:00:02.122Z,90.00
2018-11-29T15:03:09.281Z,89.70
2018-11-29T15:06:13.414Z,90.30
2018-11-29T15:09:17.584Z,90.40
2018-11-29T15:12:22.276Z,90.40
2018-11-29T15:15:26.784Z,90.20
2018-11-29T15:18:30.922Z,90.00
2018-11-29T15:21:35.053Z,90.10
2018-11-29T15:24:39.232Z,90.10
2018-11-29T15:27:43.359Z,90.30
2018-11-29T15:30:47.481Z,90.40
2018-11-29T15:33:51.613Z,90.60
2018-11-29T15:36:55.803Z,90.60
2018-11-29T15:39:59.929Z,90.30
2018-11-29T15:43:04.688Z,90.60
2018-11-29T15:46:08.242Z,90.50
2018-11-29T15:49:12.383Z,90.70
2018-11-29T15:52:16.675Z,90.50
2018-11-29T15:55:22.348Z,90.10
2018-11-29T15:58:26.469Z,90.40
2018-11-29T16:01:30.672Z,90.50
2018-11-29T16:04:34.880Z,90.90
2018-11-29T16:07:39.003Z,91.80
2018-11-29T16:10:43.143Z,91.60
2018-11-29T16:13:47.265Z,93.00
2018-11-29T16:16:51.380Z,93.40
2018-11-29T16:19:55.572Z,91.60
2018-11-29T16:22:59.714Z,91.60
2018-11-29T16:26:03.826Z,91.90
2018-11-29T16:29:07.982Z,92.80
2018-11-29T16:32:12.919Z,91.20
2018-11-29T16:35:17.040Z,91.30
2018-11-29T16:38:21.193Z,92.50
2018-11-29T16:41:25.312Z,92.00
2018-11-29T16:44:29.421Z,91.60
2018-11-29T16:47:33.548Z,92.00
2018-11-29T16:50:38.757Z,91.80
2018-11-29T16:53:42.907Z,91.70
2018-11-29T16:56:47.037Z,91.70
2018-11-29T16:59:51.237Z,91.60
2018-11-29T17:02:55.577Z,91.80
2018-11-29T17:05:59.692Z,91.60
2018-11-29T17:09:04.084Z,91.80
2018-11-29T17:12:08.214Z,91.70
2018-11-29T17:15:17.257Z,91.90
2018-11-29T17:18:21.469Z,92.20
2018-11-29T17:21:25.668Z,92.70
2018-11-29T17:24:29.808Z,92.20
2018-11-29T17:27:33.932Z,91.80
2018-11-29T17:30:38.537Z,91.90
2018-11-29T17:33:42.696Z,92.00
2018-11-29T17:36:46.828Z,92.10
2018-11-29T17:39:50.939Z,92.20
2018-11-29T17:42:56.112Z,92.40
2018-11-29T17:46:00.278Z,92.50
2018-11-29T17:49:04.407Z,92.60
2018-11-29T17:52:08.608Z,92.80
2018-11-29T17:55:12.723Z,93.00
2018-11-29T17:58:17.128Z,93.20
2018-11-29T18:01:21.243Z,93.30
2018-11-29T18:04:25.356Z,93.50
2018-11-29T18:07:29.472Z,93.50
2018-11-29T18:10:36.452Z,93.60
2018-11-29T18:13:42.013Z,93.80
2018-11-29T18:16:46.125Z,94.00
2018-11-29T18:19:50.248Z,94.30
2018-11-29T18:22:54.365Z,93.80
2018-11-29T18:25:58.489Z,94.00
2018-11-29T18:29:02.693Z,94.30
2018-11-29T18:32:07.239Z,94.50
2018-11-29T18:35:12.602Z,94.80
2018-11-29T18:38:16.784Z,94.50
2018-11-29T18:41:20.901Z,94.60
2018-11-29T18:44:25.028Z,94.90
2018-11-29T18:47:29.149Z,95.30
2018-11-29T18:50:33.357Z,95.30
2018-11-29T18:53:37.492Z,95.40
2018-11-29T18:56:41.681Z,95.50
2018-11-29T18:59:45.805Z,95.70
2018-11-29T19:02:49.944Z,95.90
2018-11-29T19:05:54.154Z,95.80
2018-11-29T19:08:58.266Z,95.80
2018-11-29T19:12:02.448Z,95.90
2018-11-29T19:15:10.335Z,96.10
2018-11-29T19:18:14.615Z,96.10
2018-11-29T19:21:18.821Z,96.10
2018-11-29T19:24:23.037Z,96.00
2018-11-29T19:27:27.166Z,96.00
2018-11-29T19:30:32.157Z,95.80
2018-11-29T19:33:36.291Z,96.00
2018-11-29T19:36:40.416Z,96.00
2018-11-29T19:39:44.728Z,96.30
2018-11-29T19:42:48.766Z,96.90
2018-11-29T19:45:53.036Z,96.70
2018-11-29T19:48:57.229Z,96.90
2018-11-29T19:52:01.358Z,97.00
2018-11-29T19:55:06.458Z,97.10
2018-11-29T19:58:10.691Z,97.30
2018-11-29T20:01:14.805Z,97.30
2018-11-29T20:04:18.921Z,97.20
2018-11-29T20:07:23.116Z,97.10
2018-11-29T20:10:27.243Z,97.00
2018-11-29T20:13:31.399Z,97.10
2018-11-29T20:16:35.576Z,97.10
2018-11-29T20:19:39.701Z,97.00
2018-11-29T20:22:43.929Z,96.90
2018-11-29T20:25:48.249Z,96.70
2018-11-29T20:28:52.370Z,96.80
2018-11-29T20:31:56.561Z,96.70
2018-11-29T20:35:00.681Z,96.80
2018-11-29T20:38:05.097Z,96.80
2018-11-29T20:41:09.945Z,97.00
2018-11-29T20:44:14.122Z,97.60
2018-11-29T20:47:18.200Z,97.30
2018-11-29T20:50:24.404Z,97.20
2018-11-29T20:53:35.437Z,97.30
2018-11-29T20:56:39.637Z,97.40
2018-11-29T20:59:43.766Z,97.30
2018-11-29T21:02:47.877Z,97.40
2018-11-29T21:05:52.005Z,97.20
2018-11-29T21:08:56.297Z,97.50
2018-11-29T21:12:00.643Z,97.60
2018-11-29T21:15:05.154Z,97.60
2018-11-29T21:18:12.146Z,97.70
2018-11-29T21:21:16.268Z,97.80
2018-11-29T21:24:20.402Z,97.70
2018-11-29T21:27:24.573Z,97.40
2018-11-29T21:30:28.714Z,97.60
2018-11-29T21:33:32.824Z,97.70
2018-11-29T21:36:36.934Z,97.60
2018-11-29T21:39:41.048Z,97.70
2018-11-29T21:42:45.177Z,98.10
2018-11-29T21:45:49.299Z,97.90
2018-11-29T21:48:53.418Z,98.00
2018-11-29T21:51:57.542Z,98.00
2018-11-29T21:55:02.252Z,97.80
2018-11-29T21:58:06.367Z,97.50
2018-11-29T22:01:10.493Z,97.80
2018-11-29T22:04:14.620Z,97.80
2018-11-29T22:07:18.797Z,97.60
2018-11-29T22:10:22.932Z,97.70
2018-11-29T22:13:27.061Z,97.60
2018-11-29T22:16:31.181Z,97.50
2018-11-29T22:19:35.305Z,97.60
2018-11-29T22:22:39.927Z,97.80
2018-11-29T22:25:44.536Z,97.90
2018-11-29T22:28:48.648Z,97.70
2018-11-29T22:31:52.777Z,97.70
2018-11-29T22:34:56.893Z,97.80
2018-11-29T22:38:01.015Z,98.20
2018-11-29T22:41:05.424Z,98.00
2018-11-29T22:44:09.544Z,97.90
2018-11-29T22:47:13.729Z,98.40
2018-11-29T22:50:17.874Z,98.60
2018-11-29T22:53:21.995Z,98.70
2018-11-29T22:56:26.121Z,99.20
2018-11-29T22:59:30.261Z,98.80
2018-11-29T23:02:34.439Z,98.80
2018-11-29T23:05:38.621Z,98.30
2018-11-29T23:08:42.776Z,98.60
2018-11-29T23:11:46.935Z,98.10
2018-11-29T23:14:51.121Z,98.50
2018-11-29T23:17:55.265Z,98.50
2018-11-29T23:20:59.448Z,99.10
2018-11-29T23:24:03.609Z,99.10
2018-11-29T23:27:08.608Z,98.80
2018-11-29T23:30:15.365Z,98.80
2018-11-29T23:33:19.517Z,98.50
2018-11-29T23:36:25.291Z,98.60
2018-11-29T23:39:29.449Z,98.40
2018-11-29T23:42:33.603Z,98.60
2018-11-29T23:45:37.861Z,98.30
2018-11-29T23:48:42.005Z,98.20
2018-11-29T23:51:46.149Z,98.10
2018-11-29T23:54:50.314Z,97.80
2018-11-29T23:57:54.457Z,97.90
